Tiempo atmosférico en la estación meteorológica de Santa Elena, Jaén (742 m.)



Fecha
DESCASC
Temp. máxima en grados centígrados (hora)
DESCASC
Temp. mínima en grados centígrados (hora)
DESCASC
Temp. media en grados centígrados
DESCASC
Racha de viento máxima en m/sg (hora)
DESCASC
Velocidad máxima media en intervalos de 10 minutos(hora)
DESCASC
Precipitaciones diarias en mm
DESCASC
Precipitaciones de 00:00 a 06:00 en mm
DESCASC
Precipitaciones de 06:00 a 12:00 en mm
DESCASC
Precipitaciones de 12:00 a 18:00 en mm
DESCASC
Precipitaciones de 18:00 a 24:00 en mm
DESCASC
23-06-2019 37.6 (18:10) 17.4 (07:00) 27.5 8.61 (20:20) 4.17 (21:30) 0 0 0 0 0
22-06-2019 34.5 (19:40) 16.9 (07:00) 25.7 8.06 (16:40) 3.06 (11:10) 0 0 0 0 0
21-06-2019 32.3 (18:40) 13.8 (07:40) 23 8.33 (19:10) 3.33 (16:00) 0 0 0 0 0
20-06-2019 31.1 (17:40) 13.6 (00:00) 22.4 10 (19:10) 5 (20:00) 0 0 0 0 0
19-06-2019 30.8 (18:00) 13.6 (00:00) 22.2 9.17 (15:50) 3.33 (17:30) 0 0 0 0 0
18-06-2019 31 (17:50) 15.6 (00:00) 23.3 13.06 (18:00) 5.56 (14:40) 0 0 0 0 0
17-06-2019 33.5 (19:00) 13.9 (00:00) 23.7 8.06 (15:40) 3.33 (17:30) 0 0 0 0 0
16-06-2019 30.1 (19:50) 16.2 (00:00) 23.2 7.78 (11:40) 3.33 (11:40) 0 0 0 0 0
15-06-2019 30.1 (18:20) 9.5 (00:00) 19.8 7.78 (18:40) 3.06 (18:20) 0 0 0 0 0
14-06-2019 25.4 (18:10) 14.8 (00:00) 20.1 12.5 (14:50) 5.83 (15:00) 0 0 0 0 0
13-06-2019 29.7 (19:20) 13.9 (00:00) 21.8 10.28 (16:40) 3.61 (20:10) 0 0 0 0 0
12-06-2019 29.4 (19:40) 11.9 (00:00) 20.6 11.67 (00:20) 5.56 (00:20) 0 0 0 0 0
11-06-2019 26.6 (15:30) 10.8 (00:00) 18.7 15 (19:50) 8.33 (21:00) 0 0 0 0 0
10-06-2019 29 (19:00) 11.6 (00:00) 20.3 10.56 (19:30) 5.28 (19:30) 0 0 0 0 0
09-06-2019 28.7 (16:10) 14.6 (00:00) 21.7 11.67 (18:10) 4.17 (16:20) 0 0 0 0 0
08-06-2019 31.4 (17:50) 13.9 (00:00) 22.6 8.33 (15:10) 4.44 (23:40) 0 0 0 0 0
07-06-2019 27.7 (19:50) 11.1 (00:00) 19.4 8.06 (00:10) 4.17 (00:10) 0.2 0 0.2 0 0
06-06-2019 27.4 (16:10) 10.9 (00:00) 19.1 13.61 (17:30) 5.28 (17:50) 0 0 0 0 0
05-06-2019 22.5 (19:00) 11.8 (00:00) 17.2 11.67 (13:50) 5.28 (07:50) 0 0 0 0 0
04-06-2019 31 (16:30) 16.5 (00:00) 23.8 12.5 (14:30) 5.28 (15:30) 0 0 0 0 0
03-06-2019 35.4 (18:20) 17.8 (00:00) 26.6 8.33 (17:20) 3.33 (02:30) 0 0 0 0 0
02-06-2019 35.9 (18:40) 17 (00:00) 26.5 6.39 (15:50) 3.33 (23:30) 0 0 0 0 0
01-06-2019 33.5 (16:00) 16.5 (00:00) 25 10 (14:50) 4.44 (18:10) 0 0 0 0 0
31-05-2019 34.1 (18:40) 15.4 (00:00) 24.7 8.06 (15:40) 3.06 (16:40) 0 0 0 0 0
30-05-2019 33 (19:10) 14.6 (00:00) 23.8 9.17 (00:50) 5.28 (01:40) 0 0 0 0 0
29-05-2019 27.4 (17:50) 13.5 (00:00) 20.4 13.89 (11:00) 8.33 (11:00) 0 0 0 0 0
28-05-2019 30.9 (17:20) 16.1 (00:00) 23.5 12.5 (15:40) 5.83 (21:10) 0 0 0 0 0
27-05-2019 31 (15:40) 14.9 (00:00) 22.9 9.17 (20:20) 5.28 (20:20) 0 0 0 0 0
26-05-2019 27.4 (18:10) 13.1 (00:00) 20.3 13.61 (15:10) 5.83 (15:20) 0 0 0 0 0

Gráficas

Temp. máximas Temp. mínimas Temp. medias Precipitaciones Rachas de viento máximas Velocidades máximas media en intervalos de 10 minutos

Datos horarios

Fecha y hora oficial Temperatura (ºC) Velocidad del viento (km/h) Dirección del viento Racha (km/h) Dirección de racha Precipitación (mm) Presión (hPa) Tendencia (hPa) Humedad (%)
2019-06-24 23:00:00 24.3 10 Sudoeste 20 Sudoeste 0 927.9 1.4 28
2019-06-24 22:00:00 25.7 5 Sur 19 Sudoeste 0 927.4 1.1 24
2019-06-24 21:00:00 28.1 11 Sudoeste 27 Sudoeste 0 927 0.6 21
2019-06-24 20:00:00 31.3 12 Sudoeste 29 Sudoeste 0 926.5 0 21
2019-06-24 19:00:00 33.6 13 Sudoeste 29 Sudoeste 0 926.3 -0.5 19
2019-06-24 18:00:00 33.3 10 Oeste 30 Sudoeste 0 926.4 -0.6 20
2019-06-24 17:00:00 33.3 9 Sudoeste 24 Sudoeste 0 926.5 -0.7 19
2019-06-24 16:00:00 31.8 6 Sur 20 Sudoeste 0 926.8 -0.6 21
2019-06-24 15:00:00 28.8 8 Sur 22 Sur 0 927 -0.5 28
2019-06-24 14:00:00 29.7 8 Sur 19 Sur 0 927.2 -0.4 27
2019-06-24 13:00:00 28.5 8 Sur 21 Sur 0 927.4 -0.2 31
2019-06-24 12:00:00 27.2 7 Sur 18 Sur 0 927.5 0.1 32
2019-06-24 11:00:00 26.7 6 Sur 14 Sur 0 927.6 0.2 35
2019-06-24 10:00:00 23.7 5 Sudoeste 11 Sur 0 927.6 0.7 47
2019-06-24 09:00:00 19.8 2 Norte 12 Sur 0 927.4 0.8 60
2019-06-24 08:00:00 17.9 5 Sur 10 Sur 0 927.4 0.7 67
2019-06-24 07:00:00 17.9 4 Sudeste 10 Sur 0 926.9 0 66
2019-06-24 06:00:00 18.6 4 Sur 9 Sur 0 926.6 -0.4 64
2019-06-24 05:00:00 19.4 3 Sur 10 Sudeste 0 926.7 -0.3 61
2019-06-24 04:00:00 20.3 3 Sur 13 Sur 0 926.9 0 57
2019-06-24 03:00:00 21.4 5 Sur 13 Sudoeste 0 927 0.3 46
2019-06-24 02:00:00 22.1 4 Sur 12 Sur 0 927 0.9 40
2019-06-24 01:00:00 23.8 6 Sur 14 Sudoeste 0 926.9 1.8 30
2019-06-24 00:00:00 24.9 8 Sudoeste 14 Sudoeste 0 926.7 2 27
2019-06-23 23:00:00 25.9 8 Sudoeste 24 Sudoeste 0 926.1 2 26
2019-06-23 22:00:00 27.5 13 Sudoeste 28 Sudoeste 0 925.1 1.2 25
2019-06-23 21:00:00 30 14 Sudoeste 31 Sudoeste 0 924.7 0.5 21
2019-06-23 20:00:00 34.2 10 Sudoeste 30 Sudoeste 0 924.1 -0.5 16
2019-06-23 19:00:00 37.2 11 Sudoeste 26 Sudoeste 0 923.9 -1.5 13
2019-06-23 18:00:00 37.3 9 Sudoeste 26 Sudoeste 0 924.2 -1.9 12
2019-06-23 17:00:00 36.1 9 Sur 19 Sur 0 924.6 -1.9 13
2019-06-23 16:00:00 35.4 6 Sur 21 Sudoeste 0 925.4 -1.6 13
2019-06-23 15:00:00 34.3 10 Sudoeste 23 Sur 0 926.1 -1.2 14
2019-06-23 14:00:00 32.2 6 Sudoeste 16 Sudoeste 0 926.5 -1 17
2019-06-23 13:00:00 30.9 6 Sur 19 Sur 0 927 -0.8 19
2019-06-23 12:00:00 28.5 5 Sur 14 Sudoeste 0 927.3 -0.6 24
2019-06-23 11:00:00 25.6 4 Norte 12 Norte 0 927.5 -0.2 31
2019-06-23 10:00:00 22.5 2 Sur 8 Sudeste 0 927.8 0.3 38
2019-06-23 09:00:00 19.1 3 Sur 6 Sur 0 927.9 0.9 48
2019-06-23 08:00:00 17.7 0 Calma 9 Sudeste 0 927.7 0.7 53
2019-06-23 07:00:00 17.4 4 Sur 9 Sur 0 927.5 0.4 53
2019-06-23 06:00:00 18 5 Sur 12 Sur 0 927 -0.3 51
2019-06-23 05:00:00 18.4 4 Sudeste 15 Sudoeste 0 927 -0.3 50
2019-06-23 04:00:00 19.1 4 Sur 11 Sur 0 927.1 0 47
2019-06-23 03:00:00 20.2 3 Sudeste 12 Sur 0 927.3 0.3 41
2019-06-23 02:00:00 21.8 4 Sur 19 Sur 0 927.3 0.6 33
2019-06-23 01:00:00 24.2 5 Sudoeste 12 Oeste 0 927.1 0.9 25
2019-06-23 00:00:00 24.6 6 Oeste 12 Oeste 0 927 1.2 25
2019-06-22 23:00:00 25.7 4 Noroeste 15 Oeste 0 926.7 1 23
2019-06-22 22:00:00 27.5 5 Sudoeste 16 Sudoeste 0 926.2 0.4 21
2019-06-22 21:00:00 30 8 Oeste 20 Sudoeste 0 925.8 -0.5 18
2019-06-22 20:00:00 33.2 10 Sudoeste 20 Sudoeste 0 925.7 -1 14
2019-06-22 19:00:00 33.8 7 Sudoeste 23 Sudoeste 0 925.8 -1.3 14
2019-06-22 18:00:00 32.9 10 Oeste 23 Oeste 0 926.3 -1.5 15
2019-06-22 17:00:00 33.3 8 Sur 29 Oeste 0 926.7 -1.4 14
2019-06-22 16:00:00 33.1 11 Oeste 28 Sudoeste 0 927.1 -1.6 13
2019-06-22 15:00:00 31.8 7 Sur 24 Oeste 0 927.8 -1.2 14
2019-06-22 14:00:00 31.6 9 Sur 26 Sur 0 928.1 -0.8 17
2019-06-22 13:00:00 29.7 9 Sudoeste 19 Sudoeste 0 928.7 -0.3 20
2019-06-22 12:00:00 27.5 9 Sur 26 Sur 0 929 0.3 27
2019-06-22 11:00:00 26.2 10 Sur 23 Sur 0 928.9 0.5 28
2019-06-22 10:00:00 23.8 4 Sudeste 11 Sudeste 0 929 1.1 31
2019-06-22 09:00:00 19.6 2 Noroeste 7 Norte 0 928.7 1 35
2019-06-22 08:00:00 17.1 3 Sudeste 6 Sudeste 0 928.4 0.9 39
2019-06-22 07:00:00 16.9 3 Este 6 Sudeste 0 927.9 0 33
2019-06-22 06:00:00 17.2 3 Este 6 Norte 0 927.7 -0.4 32
2019-06-22 05:00:00 18.4 2 Nordeste 6 Este 0 927.5 -0.7 30
2019-06-22 04:00:00 18.9 3 Norte 9 Este 0 927.9 -0.4 29
2019-06-22 03:00:00 20.3 3 Este 6 Nordeste 0 928.1 -0.2 26
2019-06-22 02:00:00 21.4 4 Este 8 Este 0 928.2 0.2 24
2019-06-22 01:00:00 22.3 2 Oeste 14 Noroeste 0 928.3 1 23
2019-06-22 00:00:00 23 6 Noroeste 18 Noroeste 0 928.3 1.4 21
2019-06-21 23:00:00 23.6 3 Norte 11 Oeste 0 928 1.5 24
2019-06-21 22:00:00 25.2 5 Sudoeste 15 Sudoeste 0 927.3 1.1 23
2019-06-21 21:00:00 27.3 7 Sur 26 Sur 0 926.9 0.6 18
2019-06-21 20:00:00 31.2 10 Sur 30 Sur 0 926.5 -0.1 14
2019-06-21 19:00:00 32.1 10 Sur 28 Sur 0 926.2 -0.8 15
2019-06-21 18:00:00 32 8 Sur 26 Sudoeste 0 926.3 -1 17
2019-06-21 17:00:00 31.5 10 Sudoeste 27 Sur 0 926.6 -1.1 17
2019-06-21 16:00:00 30.5 12 Oeste 28 Sudoeste 0 927 -1.1 21
2019-06-21 15:00:00 29.9 10 Sur 28 Sudoeste 0 927.3 -1.1 24
2019-06-21 14:00:00 28.2 10 Sur 24 Sudeste 0 927.7 -0.9 27
2019-06-21 13:00:00 27.2 8 Sur 23 Sur 0 928.1 -0.4 30
2019-06-21 12:00:00 25.1 9 Sur 24 Sur 0 928.4 0.1 35
2019-06-21 11:00:00 22.4 5 Sur 15 Sudoeste 0 928.6 0.4 42
2019-06-21 10:00:00 19.3 4 Sur 9 Sur 0 928.5 0.8 54
2019-06-21 09:00:00 15.9 4 Sudeste 8 Sur 0 928.3 0.8 67
2019-06-21 08:00:00 14.3 2 Nordeste 9 Norte 0 928.2 1 72
2019-06-21 07:00:00 14.1 4 Sudeste 6 Sudeste 0 927.7 0.5 70
2019-06-21 06:00:00 14.6 3 Sur 9 Sur 0 927.5 0.3 68
2019-06-21 05:00:00 15.5 3 Sur 6 Oeste 0 927.2 -0.1 67
2019-06-21 04:00:00 16.2 3 Oeste 11 Sudoeste 0 927.2 -0.2 65
2019-06-21 03:00:00 17.3 4 Sur 15 Sudoeste 0 927.2 0 61
2019-06-21 02:00:00 18 7 Sudoeste 13 Sudoeste 0 927.3 0.5 55
2019-06-21 01:00:00 18.9 8 Sudoeste 18 Sudoeste 0 927.4 1.4 50
2019-06-21 00:00:00 20 4 Sur 17 Sudoeste 0 927.2 1.7 42
2019-06-20 23:00:00 20.9 10 Sudoeste 26 Sudoeste 0 926.8 1.3 39
2019-06-20 22:00:00 22.5 13 Sudoeste 30 Sudoeste 0 926 0.7 36
2019-06-20 21:00:00 25.6 13 Sudoeste 31 Sudoeste 0 925.5 0.1 29
2019-06-20 20:00:00 29 18 Sudoeste 36 Sudoeste 0 925.5 -0.1 23
2019-06-20 19:00:00 30.2 17 Sudoeste 32 Sudoeste 0 925.3 -0.5 21
2019-06-20 18:00:00 30.8 15 Sudoeste 36 Sudoeste 0 925.4 -1 20
2019-06-20 17:00:00 30.9 10 Sudoeste 30 Sudoeste 0 925.6 -1.3 18
2019-06-20 16:00:00 30.4 8 Sudoeste 26 Oeste 0 925.8 -1.5 19
2019-06-20 15:00:00 28.8 9 Sur 23 Sudoeste 0 926.4 -1.1 26
2019-06-20 14:00:00 27.5 6 Sudoeste 23 Sur 0 926.9 -0.6 31
2019-06-20 13:00:00 26.1 8 Sudoeste 21 Sudoeste 0 927.3 -0.3 38
2019-06-20 12:00:00 24.5 4 Sudeste 15 Sur 0 927.5 -0.1 42
2019-06-20 11:00:00 21.9 5 Sur 13 Sudoeste 0 927.5 0 53
2019-06-20 10:00:00 19.1 6 Sudeste 13 Este 0 927.6 0.2 63
2019-06-20 09:00:00 16.2 3 Este 8 Sur 0 927.6 0.2 78
2019-06-20 08:00:00 13.9 0 Calma 7 Norte 0 927.5 0.1 81
2019-06-20 07:00:00 14.1 2 Noroeste 8 Sudeste 0 927.4 -0.2 79
2019-06-20 06:00:00 14.8 2 Sur 9 Sur 0 927.4 -0.4 76
2019-06-20 05:00:00 15.6 5 Sur 10 Sur 0 927.4 -0.6 74
2019-06-20 04:00:00 16.4 3 Sur 15 Sur 0 927.6 -0.3 70
2019-06-20 03:00:00 17.9 7 Sur 13 Sur 0 927.8 -0.1 59
2019-06-20 02:00:00 19.4 7 Sudeste 12 Este 0 928 0.2 43
2019-06-20 01:00:00 20.2 4 Noroeste 10 Oeste 0 927.9 0.6 39
2019-06-20 00:00:00 21.1 7 Oeste 16 Sudoeste 0 927.9 0.8 35
2019-06-19 23:00:00 22 8 Sudoeste 17 Sur 0 927.8 0.9 33
2019-06-19 22:00:00 23.4 9 Sudoeste 19 Sudoeste 0 927.3 0.6 27
2019-06-19 21:00:00 26.6 7 Sur 27 Sur 0 927.1 0 24
2019-06-19 20:00:00 29.6 10 Sur 27 Sur 0 926.9 -0.6 21
2019-06-19 19:00:00 30.6 10 Sur 31 Sudoeste 0 926.7 -1.2 20
2019-06-19 18:00:00 30.6 12 Sur 32 Sudoeste 0 927.1 -1.4 21
2019-06-19 17:00:00 30 10 Sur 27 Sur 0 927.5 -1.5 25
2019-06-19 16:00:00 29.1 10 Sur 33 Sudoeste 0 927.9 -1.5 28
2019-06-19 15:00:00 27.5 8 Sudoeste -- -- -- 928.5 -0.9 32
2019-06-19 14:00:00 26.2 8 Sudoeste 26 Sur 0 929 -0.5 35
2019-06-19 13:00:00 24.4 10 Sur 29 Sur 0 929.4 -0.2 45
2019-06-19 12:00:00 23.1 9 Sur 24 Sur 0 929.4 0 50
2019-06-19 11:00:00 20.7 9 Sur 19 Sudeste 0 929.5 0.3 59
2019-06-19 10:00:00 18.6 8 Sur 17 Sudeste 0 929.6 0.6 67
2019-06-19 09:00:00 15.8 3 Sur 10 Sur 0 929.4 0.5 80
2019-06-19 08:00:00 14.1 2 Sur 7 Sudeste 0 929.2 0.6 82
2019-06-19 07:00:00 13.7 0 Calma 7 Sur 0 929 0.5 79
2019-06-19 06:00:00 14.4 0 Calma 10 Sudoeste 0 928.9 0.4 75
2019-06-19 05:00:00 15.2 5 Sur 9 Sudoeste 0 928.6 -0.2 73
2019-06-19 04:00:00 15.7 2 Nordeste 11 Sudoeste 0 928.5 -0.5 67
2019-06-19 03:00:00 16.9 5 Sur 12 Sur 0 928.5 -0.5 63
2019-06-19 02:00:00 17.6 6 Sudoeste 14 Sudoeste 0 928.8 0 56
2019-06-19 01:00:00 18.7 5 Sudoeste 21 Sudoeste 0 929 0.9 47
2019-06-19 00:00:00 19.8 12 Sudoeste 21 Sudoeste 0 929 1 34
2019-06-18 23:00:00 21 10 Sudoeste 24 Sur 0 928.8 1.2 28
2019-06-18 22:00:00 22.9 10 Sudoeste 32 Sudoeste 0 928.1 0.9 15
2019-06-18 21:00:00 25.9 16 Sudoeste 35 Sudoeste 0 928 0.6 12
2019-06-18 20:00:00 29.2 15 Oeste 39 Sudoeste 0 927.6 0.3 12
2019-06-18 19:00:00 29.9 18 Oeste 42 Oeste 0 927.2 -0.5 9
2019-06-18 18:00:00 30.7 17 Oeste 47 Oeste 0 927.4 -0.5 10
2019-06-18 17:00:00 30.5 15 Sudoeste 40 Oeste 0 927.3 -1 13
2019-06-18 16:00:00 30.4 17 Sudoeste 41 Sudoeste 0 927.7 -0.9 14
2019-06-18 15:00:00 29.5 18 Sudoeste 45 Sudoeste 0 927.9 -0.9 14
2019-06-18 14:00:00 28.4 15 Sudoeste 42 Sudoeste 0 928.3 -0.3 13
2019-06-18 13:00:00 27.1 11 Sudoeste 28 Sur 0 928.6 0 21
2019-06-18 12:00:00 25.8 9 Sur 23 Sur 0 928.8 0.1 28
2019-06-18 11:00:00 23.5 8 Sur 17 Sur 0 928.6 0.1 34
2019-06-18 10:00:00 20.6 4 Sur 10 Sudoeste 0 928.6 0.3 42
2019-06-18 09:00:00 17.8 4 Sur 8 Sudoeste 0 928.7 0.6 50
2019-06-18 08:00:00 16.1 4 Sudeste 6 Sudeste 0 928.5 0.5 54
2019-06-18 07:00:00 15.7 0 Calma 5 Sudoeste 0 928.3 0.1 52
2019-06-18 06:00:00 16.2 2 Sudoeste 10 Sur 0 928.1 -0.2 51
2019-06-18 05:00:00 17.3 7 Sur 12 Sur 0 928 -0.3 48
2019-06-18 04:00:00 18.1 4 Sur 9 Sur 0 928.2 -0.3 37
2019-06-18 03:00:00 18.8 0 Calma 10 Sudoeste 0 928.3 0 34
2019-06-18 02:00:00 19.6 6 Sur 12 Sur 0 928.3 0.3 33
2019-06-18 01:00:00 21 8 Sur 15 Sudoeste 0 928.5 1 28
2019-06-18 00:00:00 23 8 Sudoeste 14 Sudoeste 0 928.3 1 23
2019-06-17 23:00:00 24.2 6 Sudoeste 12 Sudoeste 0 928 0.9 21
2019-06-17 22:00:00 25.6 6 Sudoeste 19 Sudoeste 0 927.5 0.6 19
2019-06-17 21:00:00 28.6 12 Sudoeste 25 Sudoeste 0 927.3 -0.2 17
2019-06-17 20:00:00 32.2 11 Sudoeste 24 Sudoeste 0 927.1 -0.6 13
2019-06-17 19:00:00 33.4 8 Sudoeste 27 Sudoeste 0 926.9 -1.5 12
2019-06-17 18:00:00 32.9 12 Sudoeste 28 Sur 0 927.5 -1.5 14
2019-06-17 17:00:00 32.1 9 Sur 26 Sur 0 927.7 -2 14
2019-06-17 16:00:00 32 11 Sur 29 Sur 0 928.4 -1.6 13
2019-06-17 15:00:00 31.2 8 Sur 24 Sur 0 929 -1.4 15
2019-06-17 14:00:00 29.8 7 Sudoeste 24 Sudoeste 0 929.7 -0.9 19
2019-06-17 13:00:00 28.3 5 Sur 18 Sur 0 930 -1 23
2019-06-17 12:00:00 26.4 5 Este 14 Sudeste 0 930.4 -0.5 25
2019-06-17 11:00:00 23.6 5 Sur 15 Sudeste 0 930.6 -0.5 31
2019-06-17 10:00:00 20.6 5 Sur 13 Sur 0 931 0.4 38
2019-06-17 09:00:00 16.5 0 Calma 6 Norte 0 930.9 0.4 50
2019-06-17 08:00:00 14.2 3 Norte 5 Norte 0 931.1 0.9 54
2019-06-17 07:00:00 14.1 4 Este 7 Este 0 930.6 0.1 55
2019-06-17 06:00:00 14.6 2 Nordeste 9 Sur 0 930.5 -0.3 51
2019-06-17 05:00:00 15.8 7 Sudeste 11 Sudeste 0 930.2 -0.7 48
2019-06-17 04:00:00 16.6 9 Sudoeste 16 Sudoeste 0 930.5 -0.3 46
2019-06-17 03:00:00 17.4 6 Sudoeste 16 Sudoeste 0 930.8 0 39
2019-06-17 02:00:00 18.4 4 Sudoeste 16 Sudoeste 0 930.9 0.3 32
2019-06-17 01:00:00 20.5 8 Sudoeste 15 Sur 0 930.8 0.9 25
2019-06-17 00:00:00 21.2 10 Oeste 18 Oeste 0 930.8 1.2 22
2019-06-16 23:00:00 21.9 8 Oeste 14 Sudoeste 0 930.6 1.1 21
2019-06-16 22:00:00 23.2 5 Sur 14 Sur 0 929.9 0.5 21
2019-06-16 21:00:00 26.3 6 Sur 23 Sudoeste 0 929.6 0.1 16
2019-06-16 20:00:00 28.7 9 Sudoeste 23 Sudoeste 0 929.5 -0.1 12
2019-06-16 19:00:00 28.7 10 Sudoeste 23 Sudoeste 0 929.4 -0.5 12
2019-06-16 18:00:00 27.9 9 Sudoeste 23 Sur 0 929.5 -0.7 12
2019-06-16 17:00:00 27.9 6 Sudoeste 21 Sudoeste 0 929.6 -0.9 12
2019-06-16 16:00:00 27.4 10 Sudoeste 23 Sudoeste 0 929.9 -0.6 14
2019-06-16 15:00:00 26.7 9 Sur 25 Sur 0 930.2 -0.6 16
2019-06-16 14:00:00 27.5 9 Sudoeste 24 Sur 0 930.5 -0.1 15
2019-06-16 13:00:00 28.1 9 Sudeste 27 Sur 0 930.5 0.1 14
2019-06-16 12:00:00 26.3 10 Sur 28 Sur 0 930.8 0.7 16
2019-06-16 11:00:00 22.9 8 Sur 19 Sudeste 0 930.6 0.6 20
2019-06-16 10:00:00 22.3 8 Sudeste 19 Sudeste 0 930.4 1 23
2019-06-16 09:00:00 18.9 3 Norte 8 Este 0 930.1 0.9 28
2019-06-16 08:00:00 16.6 3 Norte 12 Nordeste 0 930 0.9 31
2019-06-16 07:00:00 16.4 5 Nordeste 19 Nordeste 0 929.4 -0.1 28
2019-06-16 06:00:00 16.6 9 Nordeste 17 Nordeste 0 929.2 -0.8 27
2019-06-16 05:00:00 17 10 Nordeste 15 Nordeste 0 929.1 -1.7 27
2019-06-16 04:00:00 17.8 9 Norte 18 Norte 0 929.5 -1.5 26
2019-06-16 03:00:00 17.7 9 Nordeste 17 Nordeste 0 930 -1.1 25
2019-06-16 02:00:00 18.6 7 Nordeste 17 Nordeste 0 930.8 0 24
2019-06-16 01:00:00 19.6 10 Nordeste 17 Nordeste 0 931 0.9 23
2019-06-16 00:00:00 19.8 8 Nordeste 18 Nordeste 0 931.1 1.3 24
2019-06-15 23:00:00 20.9 2 Este 9 Norte 0 930.8 1.3 28
2019-06-15 22:00:00 22.8 4 Sur 16 Sur 0 930.1 0.8 25
2019-06-15 21:00:00 26 7 Sur 20 Sur 0 929.8 0.4 20
2019-06-15 20:00:00 29.4 6 Sur 21 Sur 0 929.5 -0.3 15
2019-06-15 19:00:00 29.9 9 Sudoeste 28 Sur 0 929.3 -0.9 14
2019-06-15 18:00:00 29.7 8 Sudoeste 23 Sudoeste 0 929.4 -1.3 14
2019-06-15 17:00:00 28 7 Sudeste 24 Sudoeste 0 929.8 -1.4 15
2019-06-15 16:00:00 28.2 9 Sur 23 Sudeste 0 930.2 -1.4 17
2019-06-15 15:00:00 25.9 8 Sur 22 Sur 0 930.7 -0.9 20
2019-06-15 14:00:00 25.1 6 Sudeste 24 Sur 0 931.2 -0.5 22
2019-06-15 13:00:00 22.9 6 Oeste 17 Sudeste 0 931.6 -0.2 27
2019-06-15 12:00:00 20.8 5 Nordeste 15 Sudeste 0 931.6 -0.1 31
2019-06-15 11:00:00 19.2 7 Sur 15 Sur 0 931.7 0.4 36
2019-06-15 10:00:00 16.7 5 Norte 12 Norte 0 931.8 0.8 42
2019-06-15 09:00:00 13.3 2 Nordeste 10 Este 0 931.7 1 57
2019-06-15 08:00:00 10.3 4 Norte 5 Norte 0 931.3 0.8 66
2019-06-15 07:00:00 9.5 4 Norte 6 Norte 0 931 0.5 67
2019-06-15 06:00:00 10.3 3 Norte 5 Sur 0 930.7 0.2 67
2019-06-15 05:00:00 11.1 2 Noroeste 6 Sur 0 930.5 0 66
2019-06-15 04:00:00 12.2 5 Sudeste 9 Sudeste 0 930.5 0 63
2019-06-15 03:00:00 13.1 5 Sur 13 Sudoeste 0 930.5 0.2 60
2019-06-15 02:00:00 14 8 Sudoeste 14 Sudoeste 0 930.5 0.7 55
2019-06-15 01:00:00 15 4 Sudoeste 21 Sur 0 930.5 1.4 49
2019-06-15 00:00:00 16 6 Sudoeste 25 Sudoeste 0 930.3 2 43
2019-06-14 23:00:00 17.1 12 Sudoeste 27 Sudoeste 0 929.8 2 38
2019-06-14 22:00:00 18.4 9 Sudoeste 27 Sudoeste 0 929.1 1.9 31
2019-06-14 21:00:00 20.7 11 Sudoeste 33 Sudoeste 0 928.3 1.2 26
2019-06-14 20:00:00 23.9 12 Sudoeste 44 Sudoeste 0 927.8 0.7 22
2019-06-14 19:00:00 24.9 13 Sudoeste 37 Sur 0 927.2 -0.1 20
2019-06-14 18:00:00 25.2 15 Sudoeste 38 Sudoeste 0 927.1 -0.1 19
2019-06-14 17:00:00 24.8 13 Sur 39 Sudoeste 0 927.1 -0.1 21
2019-06-14 16:00:00 24.6 18 Sur 45 Sudoeste 0 927.3 0.1 20
2019-06-14 15:00:00 23.4 21 Sudoeste 45 Sudoeste 0 927.2 0.3 26
2019-06-14 14:00:00 23.4 16 Sudoeste 39 Sudoeste 0 927.2 0.5 33
2019-06-14 13:00:00 22 17 Sudoeste 40 Sur 0 927.2 0.6 36
2019-06-14 12:00:00 20.4 17 Sudoeste 34 Sudoeste 0 926.9 0.6 42
2019-06-14 11:00:00 19.8 14 Sudoeste 33 Sudoeste 0 926.7 0.9 47
2019-06-14 10:00:00 17.9 12 Sudoeste 29 Sudoeste 0 926.6 1.2 52
2019-06-14 09:00:00 15.9 7 Sudoeste 19 Sudoeste 0 926.3 1.6 48
2019-06-14 08:00:00 15.1 7 Sudoeste 18 Sudoeste 0 925.8 1.3 48
2019-06-14 07:00:00 15 5 Sudoeste 15 Sudoeste 0 925.4 1 47
2019-06-14 06:00:00 15.9 8 Sur 17 Sudoeste 0 924.7 0.2 45
2019-06-14 05:00:00 16.4 5 Sur 22 Sudoeste 0 924.5 0.2 47
2019-06-14 04:00:00 17.1 10 Sudoeste 35 Sudoeste 0 924.4 0.6 49
2019-06-14 03:00:00 18.3 13 Sudoeste 35 Sur 0 924.5 0.7 37
2019-06-14 02:00:00 19.5 9 Sudoeste 29 Sudoeste 0 924.3 0.9 38
2019-06-14 01:00:00 20.2 9 Sudoeste 19 Sudoeste 0 923.8 1.3 41
2019-06-14 00:00:00 20.7 8 Oeste 21 Sudoeste 0 923.8 2 41
2019-06-13 23:00:00 21.3 10 Sudoeste 20 Sudoeste 0 923.4 2 41
2019-06-13 22:00:00 22.6 9 Sudoeste 22 Sudoeste 0 922.5 1.3 35
2019-06-13 21:00:00 24.6 11 Sudoeste 26 Sudoeste 0 921.8 0.4 30
2019-06-13 20:00:00 27.5 10 Sudoeste 26 Sudoeste 0 921.4 -0.6 26
2019-06-13 19:00:00 29.4 10 Sudoeste 28 Sudoeste 0 921.2 -1.1 25
2019-06-13 18:00:00 29.3 13 Sudoeste 27 Sudoeste 0 921.4 -1.5 24
2019-06-13 17:00:00 28.6 12 Sudoeste 37 Sur 0 922 -1.3 25
2019-06-13 16:00:00 28.4 6 Sudoeste 25 Sudoeste 0 922.3 -1.5 25
2019-06-13 15:00:00 27.1 7 Sudoeste 24 Oeste 0 922.9 -1.2 27
2019-06-13 14:00:00 25.1 5 Sudoeste 18 Oeste 0 923.3 -0.7 33
2019-06-13 13:00:00 22.3 8 Sudeste 20 Sur 0 923.8 -0.5 43
2019-06-13 12:00:00 22.2 8 Sur 20 Sur 0 924.1 0.1 44
2019-06-13 11:00:00 20.8 8 Sudeste 20 Sur 0 924 0.2 49
2019-06-13 10:00:00 18.7 7 Sur 18 Sur 0 924.3 0.8 57
2019-06-13 09:00:00 15.7 8 Sudoeste 16 Oeste 0 924 0.8 71
2019-06-13 08:00:00 14.1 3 Sur 19 Oeste 0 923.8 0.5 75
2019-06-13 07:00:00 13.9 7 Sudoeste 16 Sudoeste 0 923.5 0.3 74
2019-06-13 06:00:00 14.2 6 Sudoeste 18 Sudoeste 0 923.2 -0.1 69
2019-06-13 05:00:00 15 5 Sur 12 Sur 0 923.3 0.1 60
2019-06-13 04:00:00 16.1 5 Sur 13 Sudoeste 0 923.2 -0.2 49
2019-06-13 03:00:00 17.3 6 Oeste 18 Sudoeste 0 923.3 0 40
2019-06-13 02:00:00 18.2 6 Sudoeste 13 Sudoeste 0 923.2 0 34
2019-06-13 01:00:00 19.1 5 Sur 11 Sudoeste 0 923.4 0.7 31
2019-06-13 00:00:00 20.2 7 Sudoeste 14 Oeste 0 923.3 0.8 28
2019-06-12 23:00:00 21 5 Sudoeste 11 Sudoeste 0 923.2 0.8 26
2019-06-12 22:00:00 22.3 6 Sudoeste 17 Sudoeste 0 922.7 0.1 24
2019-06-12 21:00:00 25.3 8 Sudoeste 21 Sudoeste 0 922.5 -0.4 20
2019-06-12 20:00:00 28.6 6 Sur 20 Sudoeste 0 922.4 -1.1 17
2019-06-12 19:00:00 28.7 9 Sur 28 Sur 0 922.6 -1.2 15
2019-06-12 18:00:00 28.3 10 Sur 25 Sur 0 922.9 -1.3 14
2019-06-12 17:00:00 28.1 7 Sudoeste 30 Sudoeste 0 923.5 -1.3 14
2019-06-12 16:00:00 28.1 9 Sur 31 Sudoeste 0 923.8 -1.3 16
2019-06-12 15:00:00 27.3 9 Sur 29 Sudoeste 0 924.2 -1.2 18
2019-06-12 14:00:00 26.3 8 Sur 26 Sudoeste 0 924.8 -0.7 22
2019-06-12 13:00:00 24.7 7 Sur 21 Sur 0 925.1 -0.3 27
2019-06-12 12:00:00 23.5 9 Sur 20 Sudoeste 0 925.4 0.1 35
2019-06-12 11:00:00 20.9 8 Sudeste 21 Sudeste 0 925.5 0.5 45
2019-06-12 10:00:00 18.6 10 Sudeste 27 Sudeste 0 925.4 0.7 51
2019-06-12 09:00:00 15.4 3 Sudoeste 12 Sur 0 925.3 1 60
2019-06-12 08:00:00 12.8 4 Nordeste 10 Nordeste 0 925 0.9 58
2019-06-12 07:00:00 11.9 6 Nordeste 14 Nordeste 0 924.7 0.6 55
2019-06-12 06:00:00 12.3 8 Nordeste 16 Nordeste 0 924.3 0 51
2019-06-12 05:00:00 13.7 10 Nordeste 22 Nordeste 0 924.1 -0.5 46
2019-06-12 04:00:00 14.2 8 Nordeste 26 Nordeste 0 924.1 -0.9 38
2019-06-12 03:00:00 15 13 Nordeste 32 Nordeste 0 924.3 -0.7 32
2019-06-12 02:00:00 15.8 11 Nordeste 37 Nordeste 0 924.6 -0.5 27
2019-06-12 01:00:00 16.4 9 Nordeste 42 Norte 0 925 0.7 27
2019-06-12 00:00:00 17.2 19 Norte 43 Norte 0 925 1.4 27
2019-06-11 23:00:00 17.7 19 Norte 48 Norte 0 925.1 1.9 29
2019-06-11 22:00:00 18.2 18 Norte 53 Norte 0 924.3 1.7 29
2019-06-11 21:00:00 19.7 30 Norte 48 Norte 0 923.6 1.3 28
2019-06-11 20:00:00 22 21 Norte 54 Norte 0 923.2 0.8 26
2019-06-11 19:00:00 23.8 24 Norte 51 Norte 0 922.6 0.2 24
2019-06-11 18:00:00 25.3 19 Noroeste 39 Noroeste 0 922.3 -0.1 19
2019-06-11 17:00:00 24.4 3 Sudeste 31 Sudoeste 0 922.4 -0.6 26
2019-06-11 16:00:00 25.9 12 Sudoeste 31 Sudoeste 0 922.4 -0.9 25
2019-06-11 15:00:00 25.8 11 Sudoeste 31 Sudoeste 0 922.4 -1.3 24
2019-06-11 14:00:00 25.1 10 Sur 27 Sudoeste 0 923 -0.8 26
2019-06-11 13:00:00 23.5 10 Sur 29 Sudoeste 0 923.3 -0.7 31
2019-06-11 12:00:00 21.7 10 Sudoeste 27 Sudoeste 0 923.7 -0.3 35
2019-06-11 11:00:00 19.3 12 Sudoeste 26 Sur 0 923.8 -0.4 39
2019-06-11 10:00:00 16.8 8 Sur 18 Sudoeste 0 924 -0.4 50
2019-06-11 09:00:00 13.4 4 Sudoeste 12 Sur 0 924 -0.3 70
2019-06-11 08:00:00 11 2 Norte 6 Sudoeste 0 924.2 -0.6 78
2019-06-11 07:00:00 10.9 3 Sudoeste 9 Sur 0 924.4 -0.7 76
2019-06-11 06:00:00 11.5 5 Sudeste 7 Sur 0 924.3 -1.3 74
2019-06-11 05:00:00 12.1 3 Sur 9 Sur 0 924.8 -1.2 70
2019-06-11 04:00:00 13.3 5 Sur 13 Sur 0 925.1 -1.3 65
2019-06-11 03:00:00 14.3 3 Sur 15 Sudoeste 0 925.6 -0.8 61
2019-06-11 02:00:00 15.4 10 Sudoeste 24 Sur 0 926 -0.4 57
2019-06-11 01:00:00 16.8 10 Sur 21 Sur 0 926.4 0.4 48
2019-06-11 00:00:00 19.5 9 Sudoeste 19 Noroeste 0 926.4 0.8 25
2019-06-10 23:00:00 20.2 12 Oeste 19 Noroeste 0 926.4 1 23
2019-06-10 22:00:00 21.3 12 Oeste 23 Noroeste 0 926 0.5 20
2019-06-10 21:00:00 23.7 14 Noroeste 30 Noroeste 0 925.6 -0.2 18
2019-06-10 20:00:00 26.6 16 Noroeste 38 Noroeste 0 925.4 -0.8 16
2019-06-10 19:00:00 29 7 Oeste 30 Sur 0 925.5 -1.3 14
2019-06-10 18:00:00 28.6 12 Sudoeste 35 Sur 0 925.8 -1.6 17
2019-06-10 17:00:00 28.4 9 Sur 32 Sur 0 926.2 -1.8 17
2019-06-10 16:00:00 28 9 Sur 32 Sur 0 926.8 -1.7 17
2019-06-10 15:00:00 27.1 8 Sudoeste 27 Sudoeste 0 927.4 -1.5 17
2019-06-10 14:00:00 26.1 9 Sur 26 Sur 0 928 -1 18
2019-06-10 13:00:00 24.6 7 Sudoeste 20 Oeste 0 928.5 -0.6 22
2019-06-10 12:00:00 22.7 9 Sudoeste 23 Sudoeste 0 928.9 -0.4 27
2019-06-10 11:00:00 20.6 7 Sudeste 19 Sur 0 929 0 35
2019-06-10 10:00:00 18.2 6 Sudeste 14 Sur 0 929.1 0.6 42
2019-06-10 09:00:00 14.7 3 Norte 7 Norte 0 929.3 0.7 55
2019-06-10 08:00:00 12 2 Norte 8 Sur 0 929 0 63
2019-06-10 07:00:00 11.8 5 Sudeste 8 Sudeste 0 928.5 -0.8 63
2019-06-10 06:00:00 12.4 2 Este 8 Sudeste 0 928.6 -0.8 60
2019-06-10 05:00:00 13.3 3 Sudeste 11 Este 0 929 -0.5 56
2019-06-10 04:00:00 14.2 4 Este 17 Sudoeste 0 929.3 -0.2 48
2019-06-10 03:00:00 15.7 8 Sudoeste 18 Sudoeste 0 929.4 0 41
2019-06-10 02:00:00 16.5 8 Oeste 20 Sudoeste 0 929.5 0.5 38
2019-06-10 01:00:00 17.8 9 Sudoeste 14 Sudoeste 0 929.5 1.1 32
2019-06-10 00:00:00 19 6 Sudoeste 18 Noroeste 0 929.4 1.5 26
2019-06-09 23:00:00 20.2 13 Noroeste 22 Noroeste 0 929 1.3 24
2019-06-09 22:00:00 21.6 10 Sudoeste 23 Sudoeste 0 928.4 0.9 33
2019-06-09 21:00:00 23.8 13 Sudoeste 35 Sudoeste 0 927.9 0.2 30
2019-06-09 20:00:00 25.4 12 Sur 33 Sudoeste 0 927.7 -0.1 28
2019-06-09 19:00:00 26.3 10 Sur 42 Sudoeste 0 927.5 -0.9 27
2019-06-09 18:00:00 28.6 9 Sudoeste 35 Sudoeste 0 927.7 -1.2 23
2019-06-09 17:00:00 28 11 Sur 36 Sudoeste 0 927.8 -1.5 23
2019-06-09 16:00:00 28.2 10 Sur 36 Sudoeste 0 928.4 -1.3 24
2019-06-09 15:00:00 27.6 11 Sur 31 Sur 0 928.9 -1.1 24
2019-06-09 14:00:00 26.7 9 Sur 32 Sudoeste 0 929.3 -0.8 26
2019-06-09 13:00:00 25.3 9 Sudoeste 28 Sur 0 929.7 -0.8 28
2019-06-09 12:00:00 23.6 9 Sudoeste 22 Sur 0 930 -0.3 31
2019-06-09 11:00:00 21.8 9 Sur 21 Sur 0 930.1 -0.2 34
2019-06-09 10:00:00 19 6 Sur 15 Sur 0 930.5 0.5 43
2019-06-09 09:00:00 15.5 5 Sudoeste 12 Sudoeste 0 930.3 0.7 56
2019-06-09 08:00:00 14.7 3 Sur 14 Sudoeste 0 930.3 0.4 57
2019-06-09 07:00:00 15.2 6 Sudoeste 19 Sudoeste 0 930 0 55
2019-06-09 06:00:00 15.9 9 Sudoeste 16 Sudoeste 0 929.6 -0.3 53
2019-06-09 05:00:00 16.8 6 Sudoeste 18 Sudoeste 0 929.9 -0.3 51
2019-06-09 04:00:00 17.7 9 Sudoeste 25 Sudoeste 0 930 -0.4 48
2019-06-09 03:00:00 18.7 10 Sudoeste 28 Sudoeste 0 929.9 -0.4 46
2019-06-09 02:00:00 19.3 15 Sudoeste 29 Sudoeste 0 930.2 0.5 44
2019-06-09 01:00:00 20 10 Sudoeste 27 Sudoeste 0 930.4 1.2 39
2019-06-09 00:00:00 21 13 Sudoeste 27 Sudoeste 0 930.3 1.6 34
2019-06-08 23:00:00 21.8 13 Sudoeste 28 Sudoeste 0 929.7 1.3 32
2019-06-08 22:00:00 23 9 Sudoeste 18 Sudoeste 0 929.2 1.1 30
2019-06-08 21:00:00 24.8 11 Sudoeste 26 Sudoeste 0 928.7 0.2 27
2019-06-08 20:00:00 27.5 11 Sudoeste 28 Sudoeste 0 928.4 -0.3 22
2019-06-08 19:00:00 30.5 11 Sudoeste 28 Sudoeste 0 928.1 -1.1 16
2019-06-08 18:00:00 30.9 10 Oeste 27 Sudoeste 0 928.5 -1.1 15
2019-06-08 17:00:00 29.7 10 Sudoeste 26 Sudoeste 0 928.7 -1.4 18
2019-06-08 16:00:00 29.5 8 Sur 30 Sudoeste 0 929.2 -1.2 17
2019-06-08 15:00:00 29.2 7 Sudoeste 24 Sudoeste 0 929.6 -0.9 17
2019-06-08 14:00:00 28.8 10 Sur 25 Sur 0 930.1 -0.7 17
2019-06-08 13:00:00 27.9 9 Sur 22 Sur 0 930.4 -0.3 18
2019-06-08 12:00:00 25.8 9 Sur 27 Sur 0 930.5 0.2 21
2019-06-08 11:00:00 23.7 4 Sur 15 Sudeste 0 930.8 0.7 24
2019-06-08 10:00:00 20.9 3 Sur 9 Oeste 0 930.7 0.7 28
2019-06-08 09:00:00 17.1 3 Norte 6 Norte 0 930.3 0.6 28
2019-06-08 08:00:00 14.5 3 Nordeste 12 Nordeste 0 930.1 0.3 29
2019-06-08 07:00:00 14 5 Nordeste 16 Nordeste 0 930 0.3 27
2019-06-08 06:00:00 14.1 8 Nordeste 21 Nordeste 0 929.7 -0.3 26
2019-06-08 05:00:00 14.7 10 Nordeste 17 Nordeste 0 929.8 -0.5 25
2019-06-08 04:00:00 16 11 Norte 19 Norte 0 929.7 -0.9 21
2019-06-08 03:00:00 16.1 9 Norte 25 Norte 0 930 -0.8 21
2019-06-08 02:00:00 16.4 12 Norte 24 Noroeste 0 930.3 -0.2 21
2019-06-08 01:00:00 16.7 10 Norte 26 Norte 0 930.6 0.8 20
2019-06-08 00:00:00 17.6 9 Nordeste 18 Norte 0 930.8 1.4 20
2019-06-07 23:00:00 18.6 10 Norte 17 Norte 0 930.5 1.5 19
2019-06-07 22:00:00 20.3 4 Noroeste 8 Noroeste 0 929.8 1.2 27
2019-06-07 21:00:00 23.9 4 Sur 13 Sudoeste 0 929.4 0.6 22
2019-06-07 20:00:00 27.1 5 Sur 20 Sudoeste 0 929 0.2 18
2019-06-07 19:00:00 27.3 8 Sudoeste 23 Sudoeste 0 928.6 -0.4 19
2019-06-07 18:00:00 25.6 6 Noroeste 24 Sur 0 928.8 -0.2 20
2019-06-07 17:00:00 25.1 8 Sur 26 Sudoeste 0 928.8 -0.4 26
2019-06-07 16:00:00 24.6 8 Sur 28 Sur 0 929 -0.3 28
2019-06-07 15:00:00 22.9 8 Sudeste 28 Sur 0 929 0 32
2019-06-07 14:00:00 21.7 8 Sur 27 Sur 0 929.2 0.2 38
2019-06-07 13:00:00 20.3 10 Sur 29 Sudoeste 0 929.3 0.8 47
2019-06-07 12:00:00 16.8 8 Sudoeste 21 Sudoeste 0 929 1 64
2019-06-07 11:00:00 12.6 5 Sudoeste 12 Oeste 0 929 1.7 86
2019-06-07 10:00:00 11.6 4 Norte 10 Norte 0.2 928.5 1.9 87
2019-06-07 09:00:00 12.1 3 Sudoeste 9 Sudoeste 0 928 1.9 85
2019-06-07 08:00:00 12.2 3 Noroeste 15 Sudoeste 0 927.3 1.6 81
2019-06-07 07:00:00 12.1 7 Sudoeste 23 Sudoeste 0 926.6 1.2 77
2019-06-07 06:00:00 11.3 6 Sur 17 Sudoeste 0 926.1 0.8 74
2019-06-07 05:00:00 11.5 9 Sudoeste 21 Sudoeste 0 925.7 0.4 68
2019-06-07 04:00:00 12.3 9 Sudoeste 24 Sudoeste 0 925.4 0.2 63
2019-06-07 03:00:00 13 14 Sudoeste 25 Sudoeste 0 925.3 0.6 56
2019-06-07 02:00:00 14 11 Sudoeste 26 Sudoeste 0 925.3 1 41
2019-06-07 01:00:00 15.1 12 Sudoeste 29 Oeste 0 925.2 1.6 29
2019-06-07 00:00:00 16.7 14 Sudoeste 30 Sudoeste 0 924.7 1.4 17
2019-06-06 23:00:00 18.1 11 Sudoeste 35 Sudoeste 0 924.3 1.3 21
2019-06-06 22:00:00 19.7 10 Sudoeste 28 Sudoeste 0 923.6 0.8 22
2019-06-06 21:00:00 22.3 10 Sudoeste 33 Sudoeste 0 923.3 0.3 18
2019-06-06 20:00:00 25.6 13 Sudoeste 34 Oeste 0 923 -0.6 14
2019-06-06 19:00:00 26.7 17 Oeste 36 Sudoeste 0 922.8 -1.3 13
2019-06-06 18:00:00 26.8 14 Sudoeste 49 Sudoeste 0 923 -1.8 12
2019-06-06 17:00:00 26.8 16 Sur 43 Sudoeste 0 923.6 -1.7 13
2019-06-06 16:00:00 27.2 12 Sudoeste 35 Sur 0 924.1 -1.7 15
2019-06-06 15:00:00 25.3 9 Sur 33 Sur 0 924.8 -1.3 18
2019-06-06 14:00:00 24 11 Sur 28 Sur 0 925.3 -1.2 19
2019-06-06 13:00:00 22.7 10 Sur 26 Sur 0 925.8 -0.8 20
2019-06-06 12:00:00 21.4 9 Sur 21 Sur 0 926.1 -0.5 25
2019-06-06 11:00:00 19.1 9 Sudeste 19 Sudeste 0 926.5 -0.3 28
2019-06-06 10:00:00 16.9 6 Sudeste 14 Sur 0 926.6 0.1 32
2019-06-06 09:00:00 13.9 6 Sudeste 12 Este 0 926.6 0.1 37
2019-06-06 08:00:00 11.6 3 Nordeste 9 Nordeste 0 926.8 0.4 44
2019-06-06 07:00:00 11 3 Nordeste 12 Nordeste 0 926.5 0 42
2019-06-06 06:00:00 11.3 2 Nordeste 7 Nordeste 0 926.5 -0.1 40
2019-06-06 05:00:00 11.8 2 Norte 5 Este 0 926.4 -0.4 38
2019-06-06 04:00:00 13.1 6 Este 10 Este 0 926.5 -0.6 35
2019-06-06 03:00:00 13.6 5 Noroeste 10 Noroeste 0 926.6 -0.6 33
2019-06-06 02:00:00 14.3 8 Noroeste 15 Noroeste 0 926.8 -0.2 32
2019-06-06 01:00:00 14.7 10 Noroeste 19 Noroeste 0 927.1 0.6 31
2019-06-06 00:00:00 15.5 13 Noroeste 19 Oeste 0 927.2 1 29
2019-06-05 23:00:00 15.1 5 Noroeste 14 Noroeste 0 927 1 29
2019-06-05 22:00:00 16.3 8 Noroeste 16 Noroeste 0 926.5 0.9 27
2019-06-05 21:00:00 18.2 13 Noroeste 31 Noroeste 0 926.2 0.6 23
2019-06-05 20:00:00 20.1 14 Noroeste 28 Noroeste 0 926 0.3 22
2019-06-05 19:00:00 22.5 14 Noroeste 30 Noroeste 0 925.6 -0.3 17
2019-06-05 18:00:00 20.3 16 Noroeste 34 Noroeste 0 925.6 -0.5 19
2019-06-05 17:00:00 20.2 19 Noroeste 34 Noroeste 0 925.7 -0.7 18
2019-06-05 16:00:00 22 15 Noroeste 36 Noroeste 0 925.9 -0.4 17
2019-06-05 15:00:00 21.8 14 Oeste 37 Norte 0 926.1 -0.2 20
2019-06-05 14:00:00 20.9 14 Oeste 42 Oeste 0 926.4 0.1 20
2019-06-05 13:00:00 19.3 13 Noroeste 29 Noroeste 0 926.3 0 25
2019-06-05 12:00:00 17.9 11 Oeste 34 Oeste 0 926.3 0.7 34
2019-06-05 11:00:00 16.7 5 Sur 25 Oeste 0 926.3 1.2 41
2019-06-05 10:00:00 14 11 Oeste 31 Oeste 0 926.3 2 46
2019-06-05 09:00:00 12.5 13 Oeste 28 Noroeste 0 925.6 2.1 50
2019-06-05 08:00:00 11.9 14 Noroeste 32 Noroeste 0 925.1 1.8 51
2019-06-05 07:00:00 13.6 10 Oeste 24 Noroeste 0 924.3 1 52
2019-06-05 06:00:00 15.1 10 Oeste 23 Sudoeste 0 923.5 0.1 58
2019-06-05 05:00:00 16.1 9 Oeste 30 Sudoeste 0 923.3 -0.2 57
2019-06-05 04:00:00 16.9 12 Sudoeste 26 Sudoeste 0 923.3 -0.2 57
2019-06-05 03:00:00 17.2 12 Sudoeste 25 Sudoeste 0 923.4 0.1 67
2019-06-05 02:00:00 18 10 Sur 30 Sudoeste 0 923.5 0.4 67
2019-06-05 01:00:00 19.4 12 Sudoeste 29 Sudoeste 0 923.5 1 57
2019-06-05 00:00:00 20.6 11 Sudoeste 31 Sudoeste 0 923.3 1.1 52
2019-06-04 23:00:00 22.1 12 Sudoeste 40 Sudoeste 0 923.1 0.6 44
2019-06-04 22:00:00 23.5 15 Sudoeste 36 Sudoeste 0 922.5 -0.3 35
2019-06-04 21:00:00 25.9 16 Sudoeste 42 Sudoeste 0 922.2 -0.9 27
2019-06-04 20:00:00 27.9 14 Sudoeste 37 Sudoeste 0 922.5 -1.2 24
2019-06-04 19:00:00 30.5 15 Sudoeste 38 Sudoeste 0 922.8 -1.6 18
2019-06-04 18:00:00 30.8 15 Sudoeste 40 Sudoeste 0 923.1 -2 18
2019-06-04 17:00:00 30.9 14 Sudoeste 36 Sur 0 923.7 -2.3 18
2019-06-04 16:00:00 30.4 15 Sur 42 Sudoeste 0 924.4 -2 13
2019-06-04 15:00:00 29.6 15 Sudoeste 45 Sur 0 925.1 -1.6 14
2019-06-04 14:00:00 28.8 16 Sudoeste 39 Sudoeste 0 926 -0.7 16
2019-06-04 13:00:00 28.1 12 Sur 31 Sur 0 926.4 -0.4 19
2019-06-04 12:00:00 26.6 11 Sur 25 Sur 0 926.7 -0.1 19
2019-06-04 11:00:00 24.6 7 Sudoeste 21 Sudoeste 0 926.7 0.1 24
2019-06-04 10:00:00 22.1 8 Sudoeste 15 Sudoeste 0 926.8 0.2 27
2019-06-04 09:00:00 18.6 3 Sur 8 Sur 0 926.8 0.2 37
2019-06-04 08:00:00 16.5 0 Calma 8 Sudoeste 0 926.6 -0.3 40
2019-06-04 07:00:00 16.9 4 Sudoeste 11 Sudoeste 0 926.6 -0.6 37
2019-06-04 06:00:00 17.7 6 Sudoeste 14 Sudoeste 0 926.6 -0.8 35
2019-06-04 05:00:00 18.1 6 Oeste 14 Oeste 0 926.9 -0.7 35
2019-06-04 04:00:00 18.7 9 Sudoeste 14 Sur 0 927.2 -0.7 34
2019-06-04 03:00:00 19.8 5 Sur 17 Sudoeste 0 927.4 -0.4 31
2019-06-04 02:00:00 21.3 10 Sudoeste 24 Sudoeste 0 927.6 -0.1 27
2019-06-04 01:00:00 23.1 8 Sur 18 Sudoeste 0 927.9 0.6 21
2019-06-04 00:00:00 25 9 Oeste 17 Oeste 0 927.8 0.6 16
2019-06-03 23:00:00 25.9 9 Oeste 16 Sudoeste 0 927.7 0.5 15
2019-06-03 22:00:00 27.3 8 Sudoeste 16 Sudoeste 0 927.3 -0.1 14
2019-06-03 21:00:00 30.6 9 Sudoeste 22 Sudoeste 0 927.2 -0.6 11
2019-06-03 20:00:00 34.3 10 Sudoeste 27 Sudoeste 0 927.2 -0.9 10
2019-06-03 19:00:00 35.2 12 Sudoeste 27 Sudoeste 0 927.4 -1.4 9
2019-06-03 18:00:00 34.9 8 Sur 30 Sur 0 927.8 -1.6 9
2019-06-03 17:00:00 34.8 8 Oeste 28 Sur 0 928.1 -1.8 10
2019-06-03 16:00:00 34.7 8 Sudoeste 24 Sudoeste 0 928.8 -1.6 11
2019-06-03 15:00:00 33.3 5 Sur 21 Sudoeste 0 929.4 -1.2 12
2019-06-03 14:00:00 31.9 8 Sudeste 20 Sudoeste 0 929.9 -0.9 14
2019-06-03 13:00:00 30.2 8 Sur 17 Sur 0 930.4 -0.5 17
2019-06-03 12:00:00 28.2 7 Sudeste 18 Sur 0 930.6 -0.2 20
2019-06-03 11:00:00 25.7 7 Sur 16 Sudeste 0 930.8 0.3 24
2019-06-03 10:00:00 22.7 5 Sur 13 Sur 0 930.9 0.6 29
2019-06-03 09:00:00 19 4 Sur 12 Sur 0 930.8 0.7 37
2019-06-03 08:00:00 17.9 9 Sur 13 Sur 0 930.5 0.4 36
2019-06-03 07:00:00 18.5 7 Sudeste 10 Sudeste 0 930.3 0 31
2019-06-03 06:00:00 19.4 6 Sudoeste 13 Sudoeste 0 930.1 -0.5 27
2019-06-03 05:00:00 20.1 5 Oeste 21 Oeste 0 930.1 -0.5 27
2019-06-03 04:00:00 20.4 8 Oeste 15 Oeste 0 930.3 -0.3 27
2019-06-03 03:00:00 20.9 8 Sudoeste 24 Sudoeste 0 930.6 0.2 24
2019-06-03 02:00:00 21.6 9 Sudoeste 17 Sudoeste 0 930.6 0.9 23
2019-06-03 01:00:00 22.9 3 Sur 17 Este 0 930.6 1.5 22
2019-06-03 00:00:00 24.7 8 Sudeste 22 Este 0 930.4 1.7 20
2019-06-02 23:00:00 26.9 9 Oeste 13 Oeste 0 929.7 1.2 17
2019-06-02 22:00:00 28.3 6 Sudoeste 13 Oeste 0 929.1 0.6 15
2019-06-02 21:00:00 31.4 8 Sudoeste 15 Sudoeste 0 928.7 -0.2 13
2019-06-02 20:00:00 34.8 6 Sur 17 Sur 0 928.5 -0.7 11
2019-06-02 19:00:00 35.6 5 Sudoeste 19 Sur 0 928.5 -1.1 11
2019-06-02 18:00:00 35.4 6 Sur 22 Sudeste 0 928.9 -1.4 11
2019-06-02 17:00:00 34.5 7 Sur 22 Sudeste 0 929.2 -1.8 11
2019-06-02 16:00:00 34.8 8 Sur 23 Sur 0 929.6 -2 11
2019-06-02 15:00:00 32.8 8 Sudeste 19 Oeste 0 930.3 -1.5 13
2019-06-02 14:00:00 31.5 7 Sur 21 Sudoeste 0 931 -1 14
2019-06-02 13:00:00 29.9 5 Sudoeste 14 Sudoeste 0 931.6 -0.3 16
2019-06-02 12:00:00 27.8 5 Sur 14 Sudeste 0 931.8 0.2 19
2019-06-02 11:00:00 25.7 4 Sur 13 Este 0 932 0.6 23
2019-06-02 10:00:00 22.6 3 Este 9 Este 0 931.9 0.7 29
2019-06-02 09:00:00 19.3 0 Calma 5 Noroeste 0 931.6 0.8 34
2019-06-02 08:00:00 17.3 2 Nordeste 4 Norte 0 931.4 0.5 38
2019-06-02 07:00:00 17 0 Calma 7 Sur 0 931.2 0 36
2019-06-02 06:00:00 17.4 3 Sur 6 Sur 0 930.8 -0.7 34
2019-06-02 05:00:00 18.3 5 Sur 9 Sur 0 930.9 -0.8 31
2019-06-02 04:00:00 18.6 6 Sur 8 Sur 0 931.2 -0.7 31
2019-06-02 03:00:00 19.1 2 Noroeste 12 Sudeste 0 931.5 -0.2 30
2019-06-02 02:00:00 19.6 4 Sudeste 12 Sur 0 931.7 0.4 29
2019-06-02 01:00:00 20.6 4 Sudeste 12 Sur 0 931.9 1.4 26
2019-06-02 00:00:00 22.6 3 Nordeste 18 Sudeste 0 931.7 1.8 18
2019-06-01 23:00:00 24.6 9 Este 19 Este 0 931.3 1.7 15
2019-06-01 22:00:00 26.2 7 Este 17 Este 0 930.5 1 12
2019-06-01 21:00:00 29.2 5 Nordeste 22 Nordeste 0 929.9 0.1 12
2019-06-01 20:00:00 31.1 12 Norte 30 Norte 0 929.6 -0.5 10
2019-06-01 19:00:00 32.2 14 Norte 34 Norte 0 929.5 -1.1 10
2019-06-01 18:00:00 32.5 10 Nordeste 31 Nordeste 0 929.8 -1.2 10
2019-06-01 17:00:00 33.2 10 Este 28 Nordeste 0 930.1 -1.6 11
2019-06-01 16:00:00 33.5 8 Este 27 Este 0 930.6 -1.8 10
2019-06-01 15:00:00 32.6 6 Nordeste 36 Norte 0 931 -1.8 12
2019-06-01 14:00:00 31.1 8 Nordeste 32 Nordeste 0 931.7 -1.2 14
2019-06-01 13:00:00 30.4 8 Este 27 Sudeste 0 932.4 -0.6 15
2019-06-01 12:00:00 28.7 6 Este 21 Sudeste 0 932.8 -0.1 19
2019-06-01 11:00:00 26.4 4 Sudeste 23 Norte 0 932.9 0.2 23
2019-06-01 10:00:00 23.4 4 Nordeste 16 Nordeste 0 933 0.7 27
2019-06-01 09:00:00 18.6 3 Nordeste 6 Norte 0 932.9 0.6 42
2019-06-01 08:00:00 16.7 3 Norte 9 Este 0 932.7 0.3 44
2019-06-01 07:00:00 16.7 4 Norte 5 Norte 0 932.3 -0.2 42
2019-06-01 06:00:00 17.2 0 Calma 5 Sur 0 932.3 -0.3 43
2019-06-01 05:00:00 17.5 4 Sur 6 Sur 0 932.4 -0.6 42
2019-06-01 04:00:00 18.1 4 Sudeste 8 Sudeste 0 932.5 -0.7 42
2019-06-01 03:00:00 18.4 2 Sudoeste 10 Sudoeste 0 932.6 -0.6 40
2019-06-01 02:00:00 19.2 6 Sur 12 Sudoeste 0 933 0.1 37
2019-06-01 01:00:00 20.5 4 Sudeste 9 Este 0 933.2 1.1 33
2019-06-01 00:00:00 21.5 5 Este 15 Este 0 933.2 1.8 31
2019-05-31 23:00:00 23.1 6 Sudeste 15 Sudeste 0 932.9 1.9 27
2019-05-31 22:00:00 25.1 9 Sudeste 23 Sudeste 0 932.1 1.1 22
2019-05-31 21:00:00 29.5 4 Este 17 Este 0 931.4 0.1 14
2019-05-31 20:00:00 33.3 5 Sudeste 21 Este 0 931 -0.6 11
2019-05-31 19:00:00 33.6 5 Sur 21 Este 0 931 -1.2 11
2019-05-31 18:00:00 32.3 4 Este 24 Sudeste 0 931.3 -1.4 10
2019-05-31 17:00:00 33.2 6 Sudeste 25 Este 0 931.6 -1.6 11
2019-05-31 16:00:00 31.9 4 Oeste 29 Este 0 932.2 -1.5 11
2019-05-31 15:00:00 31.6 7 Sudeste 24 Este 0 932.7 -1.4 13
2019-05-31 14:00:00 30.1 5 Sudeste 23 Sudeste 0 933.2 -1.1 15
2019-05-31 13:00:00 29 10 Sudeste 26 Este 0 933.7 -0.5 16
2019-05-31 12:00:00 26.7 8 Sudeste 19 Sudeste 0 934.1 0.1 20
2019-05-31 11:00:00 25 6 Sudeste 17 Este 0 934.3 0.5 23
2019-05-31 10:00:00 22.2 5 Nordeste 13 Norte 0 934.2 0.6 29
2019-05-31 09:00:00 18 3 Norte 7 Nordeste 0 934 0.4 40
2019-05-31 08:00:00 16.2 4 Nordeste 6 Norte 0 933.8 -0.1 42
2019-05-31 07:00:00 15.4 3 Norte 6 Norte 0 933.6 -0.3 43
2019-05-31 06:00:00 16.1 5 Noroeste 9 Norte 0 933.6 -0.8 41
2019-05-31 05:00:00 16.6 3 Sudoeste 5 Sur 0 933.9 -0.8 42
2019-05-31 04:00:00 16.9 3 Nordeste 6 Sudoeste 0 933.9 -1 42
2019-05-31 03:00:00 17.5 3 Sudoeste 9 Sudoeste 0 934.4 -0.3 41
2019-05-31 02:00:00 18.6 6 Sudoeste 10 Oeste 0 934.7 0.2 37
2019-05-31 01:00:00 19.4 3 Sur 10 Este 0 934.9 1.4 34
2019-05-31 00:00:00 21.2 6 Este 15 Este 0 934.7 2 27
2019-05-30 23:00:00 22.4 8 Este 16 Este 0 934.5 2.4 27
2019-05-30 22:00:00 24.2 6 Sudeste 16 Sur 0 933.5 1.4 24
2019-05-30 21:00:00 28.4 5 Este 21 Este 0 932.7 0.3 14
2019-05-30 20:00:00 32.4 5 Este 22 Sudeste 0 932.1 -0.7 13
2019-05-30 19:00:00 32.7 5 Sudoeste 21 Sur 0 932.1 -0.9 13
2019-05-30 18:00:00 32 6 Sudeste 23 Este 0 932.4 -1.1 13
2019-05-30 17:00:00 31.2 4 Este 31 Este 0 932.8 -1.2 14
2019-05-30 16:00:00 31 6 Este 26 Este 0 933 -1.4 15
2019-05-30 15:00:00 29.7 8 Este 27 Sudeste 0 933.5 -1.2 16
2019-05-30 14:00:00 28.5 8 Este 22 Sudeste 0 934 -0.8 19
2019-05-30 13:00:00 27.1 6 Sudeste 22 Este 0 934.4 -0.3 22
2019-05-30 12:00:00 25.2 6 Este 19 Sudeste 0 934.7 0.3 25
2019-05-30 11:00:00 23.2 3 Este 14 Nordeste 0 934.8 0.9 28
2019-05-30 10:00:00 19.7 8 Norte 17 Norte 0 934.7 1.2 33
2019-05-30 09:00:00 16.9 6 Nordeste 14 Norte 0 934.4 1.2 37
2019-05-30 08:00:00 14.8 6 Nordeste 15 Nordeste 0 933.9 0.9 42
2019-05-30 07:00:00 14.8 8 Nordeste 21 Nordeste 0 933.5 0.4 40
2019-05-30 06:00:00 16 6 Este 16 Este 0 933.2 0.1 34
2019-05-30 05:00:00 16.7 5 Nordeste 24 Norte 0 933 -0.3 33
2019-05-30 04:00:00 17.5 15 Nordeste 27 Nordeste 0 933.1 -0.4 32
2019-05-30 03:00:00 17.9 9 Nordeste 27 Norte 0 933.1 -0.4 32
2019-05-30 02:00:00 18.8 16 Norte 31 Norte 0 933.3 0.3 31
2019-05-30 01:00:00 19.4 13 Norte 33 Norte 0 933.5 1.5 29
2019-05-30 00:00:00 20.4 18 Norte 34 Norte 0 933.5 2 27
2019-05-29 23:00:00 21.4 11 Nordeste 28 Norte 0 933 1.9 24
2019-05-29 22:00:00 22.5 17 Norte 36 Norte 0 932 1 22
2019-05-29 21:00:00 24.1 18 Norte 40 Nordeste 0 931.5 0.4 20
2019-05-29 20:00:00 26 19 Norte 39 Nordeste 0 931.1 -0.2 15
2019-05-29 19:00:00 26.8 19 Norte 41 Norte 0 931 -0.6 13
2019-05-29 18:00:00 27.2 16 Norte 40 Norte 0 931.1 -0.8 12
2019-05-29 17:00:00 26.3 21 Norte 44 Nordeste 0 931.3 -0.7 13
2019-05-29 16:00:00 26.1 17 Norte 48 Norte 0 931.6 -0.7 16
2019-05-29 15:00:00 25.2 19 Norte 39 Norte 0 931.9 -0.4 17
2019-05-29 14:00:00 23.7 18 Norte 40 Norte 0 932 0 19
2019-05-29 13:00:00 22.3 21 Norte 42 Nordeste 0 932.3 0.1 21
2019-05-29 12:00:00 21.3 17 Norte 49 Norte 0 932.3 0.4 22
2019-05-29 11:00:00 18.8 30 Norte 50 Nordeste 0 932 0.7 28
2019-05-29 10:00:00 16.8 24 Norte 41 Norte 0 932.2 1.6 32
2019-05-29 09:00:00 14.9 17 Nordeste 35 Norte 0 931.9 1.5 40
2019-05-29 08:00:00 13.6 25 Norte 42 Nordeste 0 931.3 1.2 42
2019-05-29 07:00:00 14.2 25 Norte 42 Norte 0 930.6 0.4 38
2019-05-29 06:00:00 15.7 26 Norte 43 Norte 0 930.4 0.5 35
2019-05-29 05:00:00 16 21 Norte 45 Nordeste 0 930.1 0.5 37
2019-05-29 04:00:00 16.4 15 Nordeste 39 Nordeste 0 930.2 1.1 40
2019-05-29 03:00:00 17.1 26 Norte 48 Nordeste 0 929.9 1.3 34
2019-05-29 02:00:00 18.4 27 Norte 46 Nordeste 0 929.6 1.6 30
2019-05-29 01:00:00 20.2 23 Norte 41 Norte 0 929.1 1.8 21
2019-05-29 00:00:00 21.7 5 Nordeste 28 Nordeste 0 928.6 2 18
2019-05-28 23:00:00 22.8 10 Nordeste 29 Norte 0 928 2 17
2019-05-28 22:00:00 23.9 14 Norte 41 Norte 0 927.3 1.5 17
2019-05-28 21:00:00 25.9 18 Norte 39 Norte 0 926.6 0.9 17
2019-05-28 20:00:00 29.5 15 Norte 28 Norte 0 926 0.2 19
2019-05-28 19:00:00 30.3 15 Norte 34 Nordeste 0 925.8 -0.2 17
2019-05-28 18:00:00 29.9 18 Norte 34 Noroeste 0 925.7 -0.4 16
2019-05-28 17:00:00 30.3 12 Noroeste 32 Noroeste 0 925.8 -0.6 17
2019-05-28 16:00:00 29.6 14 Norte 45 Norte 0 926 -0.4 18
2019-05-28 15:00:00 29.4 12 Norte 42 Nordeste 0 926.1 -0.3 18
2019-05-28 14:00:00 28.8 14 Norte 32 Norte 0 926.4 0 20
2019-05-28 13:00:00 28.2 9 Nordeste 28 Norte 0 926.4 0.3 21
2019-05-28 12:00:00 25.4 18 Norte 29 Norte 0 926.4 0.8 26
2019-05-28 11:00:00 23.5 17 Nordeste 31 Nordeste 0 926.4 1.2 32
2019-05-28 10:00:00 22.3 9 Nordeste 20 Nordeste 0 926.1 1.3 37
2019-05-28 09:00:00 17.9 11 Nordeste 21 Nordeste 0 925.6 1.1 47
2019-05-28 08:00:00 16.1 10 Norte 16 Norte 0 925.2 0.9 51
2019-05-28 07:00:00 16.6 9 Norte 19 Nordeste 0 924.8 0.2 47
2019-05-28 06:00:00 17 8 Nordeste 21 Nordeste 0 924.5 -0.1 43
2019-05-28 05:00:00 18.2 11 Norte 18 Norte 0 924.3 -0.3 38
2019-05-28 04:00:00 18.9 9 Nordeste 18 Norte 0 924.6 0.1 35
2019-05-28 03:00:00 21.1 8 Nordeste 33 Nordeste 0 924.6 0 29
2019-05-28 02:00:00 22.2 9 Norte 23 Noroeste 0 924.6 0.2 27
2019-05-28 01:00:00 23 10 Noroeste 22 Oeste 0 924.5 0.5 27
2019-05-28 00:00:00 23.8 14 Noroeste 21 Oeste 0 924.6 0.8 26
2019-05-27 23:00:00 24.1 13 Oeste 20 Oeste 0 924.4 0.8 24
2019-05-27 22:00:00 25 13 Noroeste 20 Noroeste 0 924 0.4 23
2019-05-27 21:00:00 26.9 14 Noroeste 33 Norte 0 923.8 -0.1 20
2019-05-27 20:00:00 29.5 17 Noroeste 31 Noroeste 0 923.6 -0.6 15
2019-05-27 19:00:00 28 8 Sur 28 Sudoeste 0 923.6 -1.3 21
2019-05-27 18:00:00 29 9 Sur 27 Sur 0 923.9 -1.6 20
2019-05-27 17:00:00 29.8 10 Sur 26 Sudoeste 0 924.2 -2 20
2019-05-27 16:00:00 29.3 7 Sudoeste 27 Sudeste 0 924.9 -1.9 20
2019-05-27 15:00:00 29.1 9 Sur 27 Sudoeste 0 925.5 -1.7 20
2019-05-27 14:00:00 28.3 6 Sur 21 Sur 0 926.2 -1.1 22
2019-05-27 13:00:00 27.1 8 Sur 27 Sur 0 926.8 -0.7 24
2019-05-27 12:00:00 25.4 5 Sur 19 Sur 0 927.2 -0.1 25
2019-05-27 11:00:00 23.7 5 Nordeste 17 Norte 0 927.3 0.3 26
2019-05-27 10:00:00 20.5 5 Norte 10 Nordeste 0 927.5 0.8 31
2019-05-27 09:00:00 17.8 5 Norte 10 Nordeste 0 927.3 0.8 34
2019-05-27 08:00:00 15 3 Norte 9 Sur 0 927 0.2 39
2019-05-27 07:00:00 15 4 Sur 10 Sur 0 926.7 -0.4 36
2019-05-27 06:00:00 15.5 6 Nordeste 10 Nordeste 0 926.5 -0.9 33
2019-05-27 05:00:00 16.2 5 Nordeste 9 Nordeste 0 926.8 -0.8 32
2019-05-27 04:00:00 17.2 4 Norte 19 Norte 0 927.1 -0.8 30
2019-05-27 03:00:00 18.1 6 Noroeste 9 Norte 0 927.4 -0.8 28
2019-05-27 02:00:00 18 5 Nordeste 8 Nordeste 0 927.6 -0.6 27
2019-05-27 01:00:00 18.5 5 Nordeste 8 Nordeste 0 927.9 0.2 26
2019-05-27 00:00:00 19.2 3 Norte 8 Noroeste 0 928.2 0.7 24
2019-05-26 23:00:00 20.5 3 Noroeste 9 Noroeste 0 928.2 1 22
2019-05-26 22:00:00 21.5 4 Noroeste 19 Norte 0 927.7 0.5 19
2019-05-26 21:00:00 24 10 Norte 30 Norte 0 927.5 0 15
2019-05-26 20:00:00 25.7 15 Norte 38 Norte 0 927.2 -0.6 13
2019-05-26 19:00:00 27 20 Norte 40 Norte 0 927.2 -1 14
2019-05-26 18:00:00 27.2 13 Norte 35 Nordeste 0 927.5 -1.1 14
2019-05-26 17:00:00 26 19 Norte 40 Norte 0 927.8 -1.2 13
2019-05-26 16:00:00 25.9 18 Norte 49 Noroeste 0 928.2 -1.3 14
2019-05-26 15:00:00 25.5 13 Norte 39 Norte 0 928.6 -1.1 17
2019-05-26 14:00:00 24.5 15 Norte 36 Norte 0 929 -0.9 19
2019-05-26 13:00:00 23.2 16 Norte 32 Norte 0 929.5 -0.5 24
2019-05-26 12:00:00 21.5 10 Nordeste 29 Norte 0 929.7 -0.1 30
2019-05-26 11:00:00 19 16 Norte 33 Norte 0 929.9 0.3 38
2019-05-26 10:00:00 17.2 14 Nordeste 33 Norte 0 930 0.7 46
2019-05-26 09:00:00 15.2 19 Norte 30 Norte 0 929.8 0.9 54
2019-05-26 08:00:00 13.5 8 Norte 18 Norte 0 929.6 0.6 54
2019-05-26 07:00:00 13.2 9 Nordeste 23 Nordeste 0 929.3 0.3 51
2019-05-26 06:00:00 14 6 Este 13 Este 0 928.9 -0.3 48
2019-05-26 05:00:00 14.7 3 Nordeste 16 Nordeste 0 929 -0.4 44
2019-05-26 04:00:00 15.2 5 Nordeste 14 Este 0 929 -0.9 42
2019-05-26 03:00:00 15.9 4 Este 14 Este 0 929.2 -0.7 40
2019-05-26 02:00:00 16.8 8 Nordeste 22 Norte 0 929.4 -0.1 36
2019-05-26 01:00:00 17.3 11 Norte 20 Norte 0 929.9 1 33
2019-05-26 00:00:00 18.3 9 Nordeste 18 Norte 0 929.9 1.5 31